sensor_id;sensor_type;location;lat;lon;timestamp;pressure;altitude;pressure_sealevel;temperature;humidity
11648;BME280;5880;52.342;9.662;2022-12-07T00:01:38;100783.59;;;8.71;63.20
11648;BME280;5880;52.342;9.662;2022-12-07T00:04:06;100783.59;;;8.71;63.22
11648;BME280;5880;52.342;9.662;2022-12-07T00:06:41;100777.91;;;8.73;62.99
11648;BME280;5880;52.342;9.662;2022-12-07T00:09:13;100776.00;;;8.73;63.36
11648;BME280;5880;52.342;9.662;2022-12-07T00:11:38;100767.84;;;8.73;63.23
11648;BME280;5880;52.342;9.662;2022-12-07T00:14:09;100773.06;;;8.75;63.17
11648;BME280;5880;52.342;9.662;2022-12-07T00:16:35;100765.97;;;8.74;62.90
11648;BME280;5880;52.342;9.662;2022-12-07T00:19:02;100764.69;;;8.76;63.26
11648;BME280;5880;52.342;9.662;2022-12-07T00:21:34;100760.69;;;8.79;63.08
11648;BME280;5880;52.342;9.662;2022-12-07T00:24:02;100747.06;;;8.79;63.26
11648;BME280;5880;52.342;9.662;2022-12-07T00:26:38;100741.41;;;8.80;63.02
11648;BME280;5880;52.342;9.662;2022-12-07T00:29:11;100748.53;;;8.81;62.97
11648;BME280;5880;52.342;9.662;2022-12-07T00:31:38;100741.81;;;8.77;63.06
11648;BME280;5880;52.342;9.662;2022-12-07T00:34:06;100746.41;;;8.83;63.21
11648;BME280;5880;52.342;9.662;2022-12-07T00:36:32;100740.13;;;8.83;63.14
11648;BME280;5880;52.342;9.662;2022-12-07T00:39:00;100739.06;;;8.84;63.35
11648;BME280;5880;52.342;9.662;2022-12-07T00:41:28;100742.63;;;8.84;63.23
11648;BME280;5880;52.342;9.662;2022-12-07T00:43:55;100741.59;;;8.85;62.90
11648;BME280;5880;52.342;9.662;2022-12-07T00:46:22;100750.59;;;8.86;63.30
11648;BME280;5880;52.342;9.662;2022-12-07T00:48:49;100735.91;;;8.87;62.82
11648;BME280;5880;52.342;9.662;2022-12-07T00:51:18;100740.31;;;8.88;63.31
11648;BME280;5880;52.342;9.662;2022-12-07T00:53:44;100733.63;;;8.84;63.29
11648;BME280;5880;52.342;9.662;2022-12-07T00:56:26;100729.16;;;8.90;63.38
11648;BME280;5880;52.342;9.662;2022-12-07T00:58:54;100730.44;;;8.87;63.31
11648;BME280;5880;52.342;9.662;2022-12-07T01:01:22;100728.34;;;8.89;63.22
11648;BME280;5880;52.342;9.662;2022-12-07T01:03:48;100724.34;;;8.92;63.31
11648;BME280;5880;52.342;9.662;2022-12-07T01:06:17;100730.41;;;8.94;63.35
11648;BME280;5880;52.342;9.662;2022-12-07T01:08:44;100727.69;;;8.94;63.25
11648;BME280;5880;52.342;9.662;2022-12-07T01:11:15;100719.31;;;8.95;63.31
11648;BME280;5880;52.342;9.662;2022-12-07T01:13:41;100718.69;;;8.93;63.33
11648;BME280;5880;52.342;9.662;2022-12-07T01:16:09;100714.50;;;8.91;63.19
11648;BME280;5880;52.342;9.662;2022-12-07T01:18:36;100718.88;;;8.92;63.36
11648;BME280;5880;52.342;9.662;2022-12-07T01:21:23;100721.59;;;8.98;63.42
11648;BME280;5880;52.342;9.662;2022-12-07T01:23:50;100730.00;;;8.97;63.61
11648;BME280;5880;52.342;9.662;2022-12-07T01:26:20;100730.00;;;8.97;63.25
11648;BME280;5880;52.342;9.662;2022-12-07T01:28:46;100730.59;;;8.99;63.45
11648;BME280;5880;52.342;9.662;2022-12-07T01:31:20;100721.81;;;8.97;63.16
11648;BME280;5880;52.342;9.662;2022-12-07T01:33:50;100738.34;;;9.02;63.55
11648;BME280;5880;52.342;9.662;2022-12-07T01:36:26;100732.66;;;9.03;63.51
11648;BME280;5880;52.342;9.662;2022-12-07T01:38:57;100729.09;;;9.03;63.61
11648;BME280;5880;52.342;9.662;2022-12-07T01:41:27;100727.19;;;9.03;63.58
11648;BME280;5880;52.342;9.662;2022-12-07T01:44:30;100715.47;;;9.03;63.58
11648;BME280;5880;52.342;9.662;2022-12-07T01:47:04;100717.16;;;9.04;63.58
11648;BME280;5880;52.342;9.662;2022-12-07T01:49:36;100720.09;;;9.02;63.41
11648;BME280;5880;52.342;9.662;2022-12-07T01:52:25;100710.84;;;9.03;63.62
11648;BME280;5880;52.342;9.662;2022-12-07T01:54:57;100718.19;;;9.03;63.61
11648;BME280;5880;52.342;9.662;2022-12-07T01:57:25;100715.47;;;9.03;63.72
11648;BME280;5880;52.342;9.662;2022-12-07T01:59:53;100710.03;;;9.03;63.53
11648;BME280;5880;52.342;9.662;2022-12-07T02:02:26;100710.84;;;9.03;63.48
11648;BME280;5880;52.342;9.662;2022-12-07T02:04:55;100708.38;;;9.02;63.31
11648;BME280;5880;52.342;9.662;2022-12-07T02:07:23;100710.03;;;9.03;63.35
11648;BME280;5880;52.342;9.662;2022-12-07T02:09:49;100710.47;;;9.00;63.38
11648;BME280;5880;52.342;9.662;2022-12-07T02:12:15;100705.22;;;8.98;63.28
11648;BME280;5880;52.342;9.662;2022-12-07T02:14:41;100699.38;;;8.95;63.20
11648;BME280;5880;52.342;9.662;2022-12-07T02:17:43;100695.81;;;8.94;63.02
11648;BME280;5880;52.342;9.662;2022-12-07T02:20:44;100706.78;;;8.87;62.97
11648;BME280;5880;52.342;9.662;2022-12-07T02:23:40;100693.81;;;8.83;63.18
11648;BME280;5880;52.342;9.662;2022-12-07T02:29:27;100693.84;;;8.76;62.94
11648;BME280;5880;52.342;9.662;2022-12-07T02:32:08;100684.63;;;8.71;62.99
11648;BME280;5880;52.342;9.662;2022-12-07T02:34:50;100685.50;;;8.71;62.82
11648;BME280;5880;52.342;9.662;2022-12-07T02:37:43;100684.88;;;8.69;62.60
11648;BME280;5880;52.342;9.662;2022-12-07T02:40:36;100672.31;;;8.61;62.84
11648;BME280;5880;52.342;9.662;2022-12-07T02:43:17;100681.09;;;8.63;62.69
11648;BME280;5880;52.342;9.662;2022-12-07T02:45:45;100674.66;;;8.58;63.12
11648;BME280;5880;52.342;9.662;2022-12-07T02:48:16;100683.66;;;8.58;63.01
11648;BME280;5880;52.342;9.662;2022-12-07T02:50:50;100681.13;;;8.57;63.08
11648;BME280;5880;52.342;9.662;2022-12-07T02:53:40;100676.97;;;8.54;63.02
11648;BME280;5880;52.342;9.662;2022-12-07T03:01:42;100665.06;;;8.49;63.38
11648;BME280;5880;52.342;9.662;2022-12-07T03:10:43;100683.91;;;8.50;63.34
11648;BME280;5880;52.342;9.662;2022-12-07T03:13:45;100668.41;;;8.51;63.28
11648;BME280;5880;52.342;9.662;2022-12-07T03:19:13;100678.66;;;8.55;63.22
11648;BME280;5880;52.342;9.662;2022-12-07T03:21:46;100666.94;;;8.55;63.38
11648;BME280;5880;52.342;9.662;2022-12-07T03:24:20;100661.25;;;8.56;63.47
11648;BME280;5880;52.342;9.662;2022-12-07T03:27:07;100658.31;;;8.58;63.20
11648;BME280;5880;52.342;9.662;2022-12-07T03:29:42;100662.94;;;8.57;63.29
11648;BME280;5880;52.342;9.662;2022-12-07T03:32:17;100662.06;;;8.57;63.17
11648;BME280;5880;52.342;9.662;2022-12-07T03:35:03;100662.94;;;8.57;63.21
11648;BME280;5880;52.342;9.662;2022-12-07T03:37:46;100662.94;;;8.57;63.27
11648;BME280;5880;52.342;9.662;2022-12-07T03:40:26;100657.91;;;8.54;63.27
11648;BME280;5880;52.342;9.662;2022-12-07T03:42:55;100653.91;;;8.57;63.00
11648;BME280;5880;52.342;9.662;2022-12-07T03:46:00;100652.84;;;8.58;63.04
11648;BME280;5880;52.342;9.662;2022-12-07T03:48:37;100663.13;;;8.56;63.18
11648;BME280;5880;52.342;9.662;2022-12-07T03:51:22;100662.94;;;8.57;63.25
11648;BME280;5880;52.342;9.662;2022-12-07T03:54:00;100659.16;;;8.52;62.96
11648;BME280;5880;52.342;9.662;2022-12-07T03:56:29;100661.47;;;8.55;62.84
11648;BME280;5880;52.342;9.662;2022-12-07T03:58:55;100662.13;;;8.50;63.06
11648;BME280;5880;52.342;9.662;2022-12-07T04:01:23;100668.41;;;8.51;63.17
11648;BME280;5880;52.342;9.662;2022-12-07T04:03:49;100664.22;;;8.48;63.20
11648;BME280;5880;52.342;9.662;2022-12-07T04:06:15;100668.84;;;8.48;62.95
11648;BME280;5880;52.342;9.662;2022-12-07T04:08:40;100673.44;;;8.47;63.15
11648;BME280;5880;52.342;9.662;2022-12-07T04:11:06;100670.72;;;8.47;63.12
11648;BME280;5880;52.342;9.662;2022-12-07T04:13:32;100675.97;;;8.49;63.20
11648;BME280;5880;52.342;9.662;2022-12-07T04:16:17;100677.03;;;8.48;63.09
11648;BME280;5880;52.342;9.662;2022-12-07T04:18:43;100678.88;;;8.47;63.19
11648;BME280;5880;52.342;9.662;2022-12-07T04:21:09;100672.00;;;8.44;63.05
11648;BME280;5880;52.342;9.662;2022-12-07T04:23:34;100679.31;;;8.51;63.28
11648;BME280;5880;52.342;9.662;2022-12-07T04:26:00;100671.13;;;8.51;62.90
11648;BME280;5880;52.342;9.662;2022-12-07T04:28:26;100668.41;;;8.51;63.22
11648;BME280;5880;52.342;9.662;2022-12-07T04:30:51;100666.72;;;8.50;62.83
11648;BME280;5880;52.342;9.662;2022-12-07T04:33:17;100664.00;;;8.50;63.21
11648;BME280;5880;52.342;9.662;2022-12-07T04:35:43;100666.72;;;8.50;63.29
11648;BME280;5880;52.342;9.662;2022-12-07T04:38:09;100651.66;;;8.47;63.04
11648;BME280;5880;52.342;9.662;2022-12-07T04:40:34;100657.97;;;8.48;63.17
11648;BME280;5880;52.342;9.662;2022-12-07T04:43:00;100657.31;;;8.52;63.20
11648;BME280;5880;52.342;9.662;2022-12-07T04:45:26;100665.03;;;8.55;62.90
11648;BME280;5880;52.342;9.662;2022-12-07T04:47:51;100664.22;;;8.55;63.05
11648;BME280;5880;52.342;9.662;2022-12-07T04:50:17;100669.66;;;8.55;63.04
11648;BME280;5880;52.342;9.662;2022-12-07T04:52:43;100665.88;;;8.56;62.90
11648;BME280;5880;52.342;9.662;2022-12-07T04:55:08;100665.03;;;8.55;62.96
11648;BME280;5880;52.342;9.662;2022-12-07T04:57:34;100651.41;;;8.55;62.75
11648;BME280;5880;52.342;9.662;2022-12-07T05:00:00;100651.63;;;8.54;62.53
11648;BME280;5880;52.342;9.662;2022-12-07T05:02:25;100652.91;;;8.51;62.51
11648;BME280;5880;52.342;9.662;2022-12-07T05:04:51;100645.16;;;8.48;62.45
11648;BME280;5880;52.342;9.662;2022-12-07T05:07:17;100655.22;;;8.48;62.40
11648;BME280;5880;52.342;9.662;2022-12-07T05:09:42;100661.09;;;8.44;62.83
11648;BME280;5880;52.342;9.662;2022-12-07T05:12:08;100653.75;;;8.45;62.87
11648;BME280;5880;52.342;9.662;2022-12-07T05:14:34;100651.25;;;8.43;62.88
11648;BME280;5880;52.342;9.662;2022-12-07T05:16:59;100644.13;;;8.42;62.73
11648;BME280;5880;52.342;9.662;2022-12-07T05:19:25;100643.31;;;8.42;62.50
11648;BME280;5880;52.342;9.662;2022-12-07T05:21:51;100642.66;;;8.47;62.60
11648;BME280;5880;52.342;9.662;2022-12-07T05:24:17;100651.88;;;8.45;62.70
11648;BME280;5880;52.342;9.662;2022-12-07T05:26:44;100647.28;;;8.46;62.83
11648;BME280;5880;52.342;9.662;2022-12-07T05:29:13;100652.72;;;8.46;62.76
11648;BME280;5880;52.342;9.662;2022-12-07T05:31:39;100654.81;;;8.44;62.89
11648;BME280;5880;52.342;9.662;2022-12-07T05:34:05;100646.84;;;8.42;62.63
11648;BME280;5880;52.342;9.662;2022-12-07T05:36:31;100659.44;;;8.43;62.65
11648;BME280;5880;52.342;9.662;2022-12-07T05:38:57;100665.09;;;8.42;62.50
11648;BME280;5880;52.342;9.662;2022-12-07T05:41:23;100656.09;;;8.41;62.88
11648;BME280;5880;52.342;9.662;2022-12-07T05:44:27;100657.34;;;8.39;62.52
11648;BME280;5880;52.342;9.662;2022-12-07T05:46:53;100650.44;;;8.36;62.72
11648;BME280;5880;52.342;9.662;2022-12-07T05:49:18;100661.53;;;8.41;62.46
11648;BME280;5880;52.342;9.662;2022-12-07T05:51:44;100659.63;;;8.42;62.66
11648;BME280;5880;52.342;9.662;2022-12-07T05:54:10;100654.00;;;8.43;62.89
11648;BME280;5880;52.342;9.662;2022-12-07T05:56:35;100657.75;;;8.42;62.86
11648;BME280;5880;52.342;9.662;2022-12-07T05:59:01;100653.38;;;8.41;62.56
11648;BME280;5880;52.342;9.662;2022-12-07T06:01:45;100651.69;;;8.40;62.59
11648;BME280;5880;52.342;9.662;2022-12-07T06:04:11;100654.19;;;8.42;63.01
11648;BME280;5880;52.342;9.662;2022-12-07T06:06:37;100654.19;;;8.42;62.68
11648;BME280;5880;52.342;9.662;2022-12-07T06:09:04;100651.25;;;8.43;62.98
11648;BME280;5880;52.342;9.662;2022-12-07T06:11:29;100660.88;;;8.46;62.79
11648;BME280;5880;52.342;9.662;2022-12-07T06:14:14;100657.34;;;8.45;62.98
11648;BME280;5880;52.342;9.662;2022-12-07T06:16:40;100669.06;;;8.46;62.83
11648;BME280;5880;52.342;9.662;2022-12-07T06:19:05;100657.97;;;8.48;62.62
11648;BME280;5880;52.342;9.662;2022-12-07T06:21:31;100652.72;;;8.46;62.71
11648;BME280;5880;52.342;9.662;2022-12-07T06:23:56;100662.53;;;8.47;62.92
11648;BME280;5880;52.342;9.662;2022-12-07T06:26:22;100659.81;;;8.47;62.71
11648;BME280;5880;52.342;9.662;2022-12-07T06:28:48;100657.09;;;8.47;62.44
11648;BME280;5880;52.342;9.662;2022-12-07T06:31:14;100663.41;;;8.48;62.72
11648;BME280;5880;52.342;9.662;2022-12-07T06:33:40;100658.16;;;8.46;62.61
11648;BME280;5880;52.342;9.662;2022-12-07T06:36:06;100658.16;;;8.46;62.38
11648;BME280;5880;52.342;9.662;2022-12-07T06:38:32;100659.44;;;8.43;62.41
11648;BME280;5880;52.342;9.662;2022-12-07T06:40:57;100656.06;;;8.48;62.66
11648;BME280;5880;52.342;9.662;2022-12-07T06:43:23;100649.78;;;8.48;62.57
11648;BME280;5880;52.342;9.662;2022-12-07T06:45:49;100659.00;;;8.47;62.48
11648;BME280;5880;52.342;9.662;2022-12-07T06:48:14;100655.44;;;8.46;62.45
11648;BME280;5880;52.342;9.662;2022-12-07T06:50:40;100660.06;;;8.45;62.22
11648;BME280;5880;52.342;9.662;2022-12-07T06:53:06;100660.25;;;8.44;62.02
11648;BME280;5880;52.342;9.662;2022-12-07T06:55:31;100672.22;;;8.43;61.95
11648;BME280;5880;52.342;9.662;2022-12-07T06:57:57;100655.06;;;8.36;62.22
11648;BME280;5880;52.342;9.662;2022-12-07T07:00:23;100660.88;;;8.39;61.96
11648;BME280;5880;52.342;9.662;2022-12-07T07:02:49;100658.59;;;8.36;61.94
11648;BME280;5880;52.342;9.662;2022-12-07T07:05:15;100663.63;;;8.33;62.07
11648;BME280;5880;52.342;9.662;2022-12-07T07:07:41;100666.78;;;8.30;62.00
11648;BME280;5880;52.342;9.662;2022-12-07T07:10:07;100658.00;;;8.28;61.75
11648;BME280;5880;52.342;9.662;2022-12-07T07:12:33;100657.19;;;8.20;61.74
11648;BME280;5880;52.342;9.662;2022-12-07T07:14:59;100666.00;;;8.22;61.85
11648;BME280;5880;52.342;9.662;2022-12-07T07:17:24;100665.38;;;8.20;61.73
11648;BME280;5880;52.342;9.662;2022-12-07T07:19:50;100661.00;;;8.19;62.18
11648;BME280;5880;52.342;9.662;2022-12-07T07:22:16;100668.28;;;8.19;61.82
11648;BME280;5880;52.342;9.662;2022-12-07T07:24:41;100677.53;;;8.18;61.90
11648;BME280;5880;52.342;9.662;2022-12-07T07:27:07;100675.63;;;8.18;62.01
11648;BME280;5880;52.342;9.662;2022-12-07T07:29:33;100674.81;;;8.18;61.73
11648;BME280;5880;52.342;9.662;2022-12-07T07:31:59;100680.47;;;8.16;61.90
11648;BME280;5880;52.342;9.662;2022-12-07T07:34:25;100682.16;;;8.17;62.20
11648;BME280;5880;52.342;9.662;2022-12-07T07:36:51;100679.63;;;8.16;62.54
11648;BME280;5880;52.342;9.662;2022-12-07T07:39:16;100682.16;;;8.17;62.08
11648;BME280;5880;52.342;9.662;2022-12-07T07:41:42;100688.63;;;8.16;62.30
11648;BME280;5880;52.342;9.662;2022-12-07T07:44:09;100686.72;;;8.17;62.14
11648;BME280;5880;52.342;9.662;2022-12-07T07:46:35;100684.25;;;8.15;62.39
11648;BME280;5880;52.342;9.662;2022-12-07T07:49:01;100692.41;;;8.15;61.99
11648;BME280;5880;52.342;9.662;2022-12-07T07:51:26;100689.91;;;8.14;61.99
11648;BME280;5880;52.342;9.662;2022-12-07T07:53:52;100688.25;;;8.13;61.89
11648;BME280;5880;52.342;9.662;2022-12-07T07:56:18;100686.53;;;8.12;61.97
11648;BME280;5880;52.342;9.662;2022-12-07T07:58:43;100686.53;;;8.12;61.96
11648;BME280;5880;52.342;9.662;2022-12-07T08:01:09;100689.50;;;8.10;62.34
11648;BME280;5880;52.342;9.662;2022-12-07T08:03:35;100684.88;;;8.11;62.36
11648;BME280;5880;52.342;9.662;2022-12-07T08:06:04;100690.09;;;8.12;62.10
11648;BME280;5880;52.342;9.662;2022-12-07T08:08:30;100690.09;;;8.12;62.20
11648;BME280;5880;52.342;9.662;2022-12-07T08:10:56;100689.28;;;8.12;62.19
11648;BME280;5880;52.342;9.662;2022-12-07T08:13:26;100683.00;;;8.11;62.13
11648;BME280;5880;52.342;9.662;2022-12-07T08:15:51;100685.72;;;8.11;62.25
11648;BME280;5880;52.342;9.662;2022-12-07T08:18:17;100690.09;;;8.12;62.63
11648;BME280;5880;52.342;9.662;2022-12-07T08:20:43;100690.09;;;8.12;62.50
11648;BME280;5880;52.342;9.662;2022-12-07T08:23:10;100688.25;;;8.13;62.52
11648;BME280;5880;52.342;9.662;2022-12-07T08:25:36;100689.88;;;8.20;62.57
11648;BME280;5880;52.342;9.662;2022-12-07T08:28:02;100692.41;;;8.22;62.56
11648;BME280;5880;52.342;9.662;2022-12-07T08:30:29;100694.47;;;8.27;62.56
11648;BME280;5880;52.342;9.662;2022-12-07T08:32:56;100691.50;;;8.28;62.50
11648;BME280;5880;52.342;9.662;2022-12-07T08:35:22;100683.78;;;8.25;62.97
11648;BME280;5880;52.342;9.662;2022-12-07T08:37:47;100692.75;;;8.32;62.86
11648;BME280;5880;52.342;9.662;2022-12-07T08:40:14;100689.84;;;8.34;62.80
11648;BME280;5880;52.342;9.662;2022-12-07T08:42:42;100690.22;;;8.37;62.95
11648;BME280;5880;52.342;9.662;2022-12-07T08:45:12;100692.13;;;8.37;63.14
11648;BME280;5880;52.342;9.662;2022-12-07T08:48:04;100696.50;;;8.44;62.92
11648;BME280;5880;52.342;9.662;2022-12-07T08:50:32;100698.41;;;8.44;62.68
11648;BME280;5880;52.342;9.662;2022-12-07T08:53:00;100691.69;;;8.40;63.05
11648;BME280;5880;52.342;9.662;2022-12-07T08:55:28;100699.41;;;8.50;62.74
11648;BME280;5880;52.342;9.662;2022-12-07T08:57:55;100710.94;;;8.52;63.05
11648;BME280;5880;52.342;9.662;2022-12-07T09:00:22;100712.19;;;8.49;62.77
11648;BME280;5880;52.342;9.662;2022-12-07T09:02:48;100709.66;;;8.54;62.78
11648;BME280;5880;52.342;9.662;2022-12-07T09:05:14;100708.38;;;8.57;62.57
11648;BME280;5880;52.342;9.662;2022-12-07T09:07:46;100704.63;;;8.58;62.90
11648;BME280;5880;52.342;9.662;2022-12-07T09:10:13;100710.06;;;8.58;62.78
11648;BME280;5880;52.342;9.662;2022-12-07T09:12:39;100723.50;;;8.59;62.83
11648;BME280;5880;52.342;9.662;2022-12-07T09:15:05;100711.53;;;8.60;62.84
11648;BME280;5880;52.342;9.662;2022-12-07T09:17:34;100711.31;;;8.62;62.74
11648;BME280;5880;52.342;9.662;2022-12-07T09:20:02;100700.63;;;8.60;62.86
11648;BME280;5880;52.342;9.662;2022-12-07T09:22:30;100703.34;;;8.60;63.02
11648;BME280;5880;52.342;9.662;2022-12-07T09:25:00;100710.25;;;8.63;62.71
11648;BME280;5880;52.342;9.662;2022-12-07T09:27:27;100703.75;;;8.64;62.91
11648;BME280;5880;52.342;9.662;2022-12-07T09:29:53;100706.03;;;8.67;63.27
11648;BME280;5880;52.342;9.662;2022-12-07T09:32:19;100704.56;;;8.71;63.25
11648;BME280;5880;52.342;9.662;2022-12-07T09:34:44;100699.13;;;8.71;62.87
11648;BME280;5880;52.342;9.662;2022-12-07T09:37:10;100702.84;;;8.77;62.83
11648;BME280;5880;52.342;9.662;2022-12-07T09:39:40;100701.56;;;8.79;62.86
11648;BME280;5880;52.342;9.662;2022-12-07T09:42:07;100689.22;;;8.77;62.88
11648;BME280;5880;52.342;9.662;2022-12-07T09:44:34;100702.81;;;8.83;62.89
11648;BME280;5880;52.342;9.662;2022-12-07T09:47:02;100705.34;;;8.85;62.93
11648;BME280;5880;52.342;9.662;2022-12-07T09:49:31;100703.19;;;8.87;62.57
11648;BME280;5880;52.342;9.662;2022-12-07T09:54:44;100695.88;;;8.87;62.63
11648;BME280;5880;52.342;9.662;2022-12-07T09:57:12;100695.88;;;8.87;62.72
11648;BME280;5880;52.342;9.662;2022-12-07T09:59:39;100690.41;;;8.87;62.81
11648;BME280;5880;52.342;9.662;2022-12-07T10:05:01;100694.09;;;9.00;63.37
11648;BME280;5880;52.342;9.662;2022-12-07T10:07:29;100686.75;;;9.00;63.16
11648;BME280;5880;52.342;9.662;2022-12-07T10:09:55;100694.69;;;9.08;63.41
11648;BME280;5880;52.342;9.662;2022-12-07T10:12:20;100697.59;;;9.14;63.46
11648;BME280;5880;52.342;9.662;2022-12-07T10:15:04;100698.56;;;9.19;63.32
11648;BME280;5880;52.342;9.662;2022-12-07T10:17:36;100691.00;;;9.21;63.34
11648;BME280;5880;52.342;9.662;2022-12-07T10:20:25;100691.19;;;9.26;63.21
11648;BME280;5880;52.342;9.662;2022-12-07T10:23:16;100684.28;;;9.24;63.21
11648;BME280;5880;52.342;9.662;2022-12-07T10:25:44;100698.06;;;9.29;62.98
11648;BME280;5880;52.342;9.662;2022-12-07T10:28:18;100702.25;;;9.32;62.77
11648;BME280;5880;52.342;9.662;2022-12-07T10:31:04;100693.22;;;9.31;62.79
11648;BME280;5880;52.342;9.662;2022-12-07T10:39:00;100686.53;;;9.27;62.49
11648;BME280;5880;52.342;9.662;2022-12-07T10:41:27;100686.16;;;9.23;62.62
11648;BME280;5880;52.342;9.662;2022-12-07T10:43:55;100685.72;;;9.26;62.77
11648;BME280;5880;52.342;9.662;2022-12-07T10:46:50;100688.84;;;9.30;62.56
11648;BME280;5880;52.342;9.662;2022-12-07T10:52:24;100680.44;;;9.32;62.91
11648;BME280;5880;52.342;9.662;2022-12-07T11:01:26;100686.50;;;9.34;63.03
11648;BME280;5880;52.342;9.662;2022-12-07T11:04:35;100680.63;;;9.37;63.05
11648;BME280;5880;52.342;9.662;2022-12-07T11:07:45;100671.53;;;9.43;63.25
11648;BME280;5880;52.342;9.662;2022-12-07T11:10:19;100668.38;;;9.46;63.16
11648;BME280;5880;52.342;9.662;2022-12-07T11:21:46;100680.09;;;9.46;62.28
11648;BME280;5880;52.342;9.662;2022-12-07T11:24:22;100675.94;;;9.44;62.17
11648;BME280;5880;52.342;9.662;2022-12-07T11:30:00;100664.25;;;9.37;61.81
11648;BME280;5880;52.342;9.662;2022-12-07T11:32:49;100673.94;;;9.33;61.79
11648;BME280;5880;52.342;9.662;2022-12-07T11:38:21;100676.31;;;9.22;61.93
11648;BME280;5880;52.342;9.662;2022-12-07T11:40:51;100658.34;;;9.15;61.36
11648;BME280;5880;52.342;9.662;2022-12-07T11:43:27;100656.06;;;9.12;61.50
11648;BME280;5880;52.342;9.662;2022-12-07T11:46:05;100653.16;;;9.06;61.20
11648;BME280;5880;52.342;9.662;2022-12-07T11:51:32;100649.69;;;8.93;61.48
11648;BME280;5880;52.342;9.662;2022-12-07T11:54:12;100644.66;;;8.90;61.45
11648;BME280;5880;52.342;9.662;2022-12-07T11:56:40;100640.75;;;8.85;61.99
11648;BME280;5880;52.342;9.662;2022-12-07T11:59:29;100629.84;;;8.85;62.00
11648;BME280;5880;52.342;9.662;2022-12-07T12:02:14;100631.75;;;8.85;61.89
11648;BME280;5880;52.342;9.662;2022-12-07T12:07:28;100620.44;;;8.81;62.48
11648;BME280;5880;52.342;9.662;2022-12-07T12:10:00;100612.88;;;8.83;63.01
11648;BME280;5880;52.342;9.662;2022-12-07T12:18:36;100619.06;;;8.97;63.24
11648;BME280;5880;52.342;9.662;2022-12-07T12:21:29;100616.69;;;9.01;63.11
11648;BME280;5880;52.342;9.662;2022-12-07T12:24:18;100609.38;;;9.01;62.92
11648;BME280;5880;52.342;9.662;2022-12-07T12:27:04;100607.50;;;9.02;62.91
11648;BME280;5880;52.342;9.662;2022-12-07T12:29:39;100608.09;;;9.04;63.24
11648;BME280;5880;52.342;9.662;2022-12-07T12:32:17;100612.47;;;9.05;62.98
11648;BME280;5880;52.342;9.662;2022-12-07T12:37:55;100603.22;;;9.06;63.02
11648;BME280;5880;52.342;9.662;2022-12-07T12:42:57;100600.03;;;9.16;63.26
11648;BME280;5880;52.342;9.662;2022-12-07T12:45:25;100598.75;;;9.18;63.26
11648;BME280;5880;52.342;9.662;2022-12-07T12:48:02;100594.47;;;9.22;63.04
11648;BME280;5880;52.342;9.662;2022-12-07T12:50:36;100596.53;;;9.27;63.60
11648;BME280;5880;52.342;9.662;2022-12-07T12:56:28;100585.34;;;9.35;63.28
11648;BME280;5880;52.342;9.662;2022-12-07T13:05:01;100577.41;;;9.34;63.07
11648;BME280;5880;52.342;9.662;2022-12-07T13:10:25;100591.19;;;9.39;62.96
11648;BME280;5880;52.342;9.662;2022-12-07T13:15:39;100575.69;;;9.39;62.79
11648;BME280;5880;52.342;9.662;2022-12-07T13:20:54;100569.97;;;9.41;62.63
11648;BME280;5880;52.342;9.662;2022-12-07T13:23:36;100570.22;;;9.39;62.69
11648;BME280;5880;52.342;9.662;2022-12-07T13:28:39;100571.50;;;9.37;62.63
11648;BME280;5880;52.342;9.662;2022-12-07T13:33:53;100560.66;;;9.30;62.63
11648;BME280;5880;52.342;9.662;2022-12-07T13:36:26;100567.34;;;9.34;62.35
11648;BME280;5880;52.342;9.662;2022-12-07T13:39:20;100563.53;;;9.35;61.86
11648;BME280;5880;52.342;9.662;2022-12-07T13:41:58;100562.94;;;9.33;62.23
11648;BME280;5880;52.342;9.662;2022-12-07T13:44:27;100568.38;;;9.33;62.35
11648;BME280;5880;52.342;9.662;2022-12-07T13:47:11;100565.66;;;9.33;62.20
11648;BME280;5880;52.342;9.662;2022-12-07T13:49:51;100565.88;;;9.32;62.18
11648;BME280;5880;52.342;9.662;2022-12-07T13:52:18;100559.59;;;9.31;62.37
11648;BME280;5880;52.342;9.662;2022-12-07T13:57:33;100553.69;;;9.34;62.23
11648;BME280;5880;52.342;9.662;2022-12-07T14:00:03;100547.16;;;9.35;62.21
11648;BME280;5880;52.342;9.662;2022-12-07T14:02:34;100549.06;;;9.35;62.01
11648;BME280;5880;52.342;9.662;2022-12-07T14:05:15;100541.72;;;9.35;61.98
11648;BME280;5880;52.342;9.662;2022-12-07T14:07:57;100546.34;;;9.35;62.08
11648;BME280;5880;52.342;9.662;2022-12-07T14:10:40;100543.00;;;9.33;61.80
11648;BME280;5880;52.342;9.662;2022-12-07T14:13:36;100549.50;;;9.32;62.02
11648;BME280;5880;52.342;9.662;2022-12-07T14:16:30;100547.44;;;9.27;62.00
11648;BME280;5880;52.342;9.662;2022-12-07T14:18:59;100540.97;;;9.28;61.92
11648;BME280;5880;52.342;9.662;2022-12-07T14:21:29;100555.41;;;9.28;62.04
11648;BME280;5880;52.342;9.662;2022-12-07T14:24:19;100558.34;;;9.27;61.85
11648;BME280;5880;52.342;9.662;2022-12-07T14:26:48;100563.22;;;9.25;61.95
11648;BME280;5880;52.342;9.662;2022-12-07T14:29:32;100549.59;;;9.25;61.85
11648;BME280;5880;52.342;9.662;2022-12-07T14:32:26;100547.91;;;9.24;61.85
11648;BME280;5880;52.342;9.662;2022-12-07T14:35:09;100538.97;;;9.17;62.00
11648;BME280;5880;52.342;9.662;2022-12-07T14:37:37;100551.56;;;9.18;61.86
11648;BME280;5880;52.342;9.662;2022-12-07T14:40:03;100553.66;;;9.16;61.72
11648;BME280;5880;52.342;9.662;2022-12-07T14:42:31;100552.81;;;9.15;61.66
11648;BME280;5880;52.342;9.662;2022-12-07T14:44:58;100545.09;;;9.12;61.47
11648;BME280;5880;52.342;9.662;2022-12-07T14:47:26;100549.94;;;9.10;61.39
11648;BME280;5880;52.342;9.662;2022-12-07T14:49:52;100548.50;;;9.07;61.65
11648;BME280;5880;52.342;9.662;2022-12-07T14:52:27;100552.28;;;9.06;61.39
11648;BME280;5880;52.342;9.662;2022-12-07T14:54:54;100553.56;;;9.04;61.34
11648;BME280;5880;52.342;9.662;2022-12-07T14:57:20;100555.69;;;9.02;61.20
11648;BME280;5880;52.342;9.662;2022-12-07T14:59:45;100555.91;;;9.00;61.40
11648;BME280;5880;52.342;9.662;2022-12-07T15:02:14;100559.09;;;8.97;61.17
11648;BME280;5880;52.342;9.662;2022-12-07T15:04:40;100557.84;;;8.93;61.33
11648;BME280;5880;52.342;9.662;2022-12-07T15:07:16;100571.06;;;8.90;61.08
11648;BME280;5880;52.342;9.662;2022-12-07T15:09:43;100563.13;;;8.88;60.90